createdAt,value
2018-12-27T00:00:37.347Z,4.96
2018-12-27T00:03:06.303Z,4.75
2018-12-27T00:05:36.626Z,4.88
2018-12-27T00:08:05.754Z,5.01
2018-12-27T00:10:33.650Z,5.03
2018-12-27T00:13:03.714Z,5.04
2018-12-27T00:15:31.911Z,4.59
2018-12-27T00:17:59.884Z,5.04
2018-12-27T00:20:29.627Z,4.68
2018-12-27T00:22:58.569Z,5.03
2018-12-27T00:25:29.883Z,5.02
2018-12-27T01:11:46.396Z,4.78
2018-12-27T01:14:14.810Z,5.02
2018-12-27T01:16:42.958Z,5.03
2018-12-27T01:19:11.114Z,5.06
2018-12-27T01:21:40.166Z,5.04
2018-12-27T01:24:09.339Z,5.08
2018-12-27T01:26:39.180Z,5.10
2018-12-27T01:29:07.450Z,5.00
2018-12-27T01:31:37.805Z,5.15
2018-12-27T01:34:06.327Z,5.16
2018-12-27T01:36:35.486Z,5.21
2018-12-27T01:39:05.461Z,5.22
2018-12-27T01:41:34.287Z,5.23
2018-12-27T01:44:02.503Z,5.13
2018-12-27T01:46:30.797Z,5.26
2018-12-27T01:48:58.850Z,5.28
2018-12-27T01:51:28.416Z,5.29
2018-12-27T01:53:57.249Z,5.31
2018-12-27T01:56:25.592Z,5.30
2018-12-27T01:58:54.398Z,5.28
2018-12-27T02:01:22.740Z,4.94
2018-12-27T02:03:50.780Z,5.23
2018-12-27T02:06:18.779Z,5.21
2018-12-27T02:08:47.555Z,4.98
2018-12-27T02:11:16.027Z,4.74
2018-12-27T02:13:44.451Z,5.07
2018-12-27T02:16:13.714Z,4.86
2018-12-27T02:18:42.388Z,5.19
2018-12-27T02:21:10.347Z,4.86
2018-12-27T02:23:38.623Z,5.17
2018-12-27T02:26:06.819Z,5.18
2018-12-27T02:28:34.607Z,5.14
2018-12-27T02:31:03.275Z,5.01
2018-12-27T02:33:35.171Z,5.00
2018-12-27T02:35:59.106Z,5.08
2018-12-27T02:38:27.341Z,4.48
2018-12-27T02:40:55.432Z,5.03
2018-12-27T02:43:23.882Z,4.99
2018-12-27T02:45:51.787Z,4.98
2018-12-27T02:48:19.792Z,4.98
2018-12-27T02:50:47.698Z,4.98
2018-12-27T02:53:15.868Z,4.88
2018-12-27T02:55:43.972Z,4.99
2018-12-27T02:58:12.252Z,4.89
2018-12-27T03:00:40.575Z,3.62
2018-12-27T03:03:08.691Z,5.05
2018-12-27T03:05:36.625Z,5.06
2018-12-27T03:08:04.667Z,5.07
2018-12-27T03:10:32.861Z,5.08
2018-12-27T03:13:01.636Z,5.09
2018-12-27T03:15:29.761Z,5.11
2018-12-27T03:17:58.055Z,4.80
2018-12-27T03:20:26.423Z,5.14
2018-12-27T03:22:54.459Z,5.14
2018-12-27T03:25:22.391Z,5.12
2018-12-27T03:27:51.006Z,5.17
2018-12-27T03:30:18.769Z,5.18
2018-12-27T03:32:46.513Z,5.20
2018-12-27T03:35:14.515Z,5.19
2018-12-27T03:37:42.411Z,5.23
2018-12-27T03:40:10.120Z,5.24
2018-12-27T03:42:38.287Z,5.24
2018-12-27T03:45:06.809Z,5.23
2018-12-27T03:47:35.652Z,5.24
2018-12-27T03:52:37.607Z,4.29
2018-12-27T03:55:05.368Z,4.96
2018-12-27T03:57:33.606Z,5.21
2018-12-27T04:00:01.492Z,5.20
2018-12-27T04:02:29.969Z,5.19
2018-12-27T04:04:57.999Z,5.18
2018-12-27T04:07:25.882Z,5.18
2018-12-27T04:09:54.223Z,5.07
2018-12-27T04:12:22.459Z,5.18
2018-12-27T04:14:50.360Z,5.15
2018-12-27T04:17:18.572Z,5.17
2018-12-27T04:19:46.441Z,5.16
2018-12-27T04:22:14.466Z,5.18
2018-12-27T04:24:42.644Z,4.60
2018-12-27T04:27:10.441Z,5.01
2018-12-27T04:29:38.520Z,5.23
2018-12-27T04:32:07.180Z,5.26
2018-12-27T04:34:35.065Z,5.17
2018-12-27T04:37:03.530Z,5.31
2018-12-27T04:39:32.052Z,5.30
2018-12-27T04:42:00.285Z,5.30
2018-12-27T04:44:28.188Z,5.33
2018-12-27T04:46:56.365Z,5.33
2018-12-27T04:49:24.301Z,5.33
2018-12-27T04:51:52.188Z,5.33
2018-12-27T04:54:20.646Z,5.09
2018-12-27T04:56:48.853Z,5.32
2018-12-27T04:59:16.759Z,5.21
2018-12-27T05:01:45.029Z,5.20
2018-12-27T05:04:18.113Z,3.66
2018-12-27T05:06:41.392Z,5.08
2018-12-27T05:09:09.599Z,5.07
2018-12-27T05:11:42.559Z,5.25
2018-12-27T05:14:10.719Z,5.25
2018-12-27T05:16:39.361Z,4.89
2018-12-27T05:19:07.479Z,5.01
2018-12-27T05:21:35.702Z,5.24
2018-12-27T05:24:04.053Z,5.12
2018-12-27T05:26:31.998Z,5.01
2018-12-27T05:28:59.931Z,5.08
2018-12-27T05:31:28.514Z,5.22
2018-12-27T05:33:56.412Z,5.00
2018-12-27T05:36:24.308Z,5.22
2018-12-27T05:38:52.820Z,5.21
2018-12-27T05:41:20.843Z,5.16
2018-12-27T05:43:48.984Z,4.91
2018-12-27T05:46:17.212Z,5.07
2018-12-27T05:48:45.313Z,4.91
2018-12-27T05:51:13.255Z,4.79
2018-12-27T05:53:41.208Z,4.95
2018-12-27T05:56:09.016Z,4.92
2018-12-27T05:58:36.877Z,4.43
2018-12-27T06:01:05.045Z,4.83
2018-12-27T06:03:33.197Z,4.46
2018-12-27T06:06:01.304Z,4.76
2018-12-27T06:08:29.148Z,4.39
2018-12-27T06:10:57.028Z,4.14
2018-12-27T06:13:25.203Z,4.68
2018-12-27T06:15:53.325Z,4.58
2018-12-27T06:18:21.759Z,4.69
2018-12-27T06:20:49.523Z,4.68
2018-12-27T06:23:18.694Z,4.45
2018-12-27T06:25:46.767Z,4.20
2018-12-27T06:28:14.741Z,4.66
2018-12-27T06:30:42.825Z,4.52
2018-12-27T06:33:10.740Z,4.63
2018-12-27T06:35:38.668Z,4.61
2018-12-27T06:38:07.288Z,4.58
2018-12-27T06:40:35.375Z,4.53
2018-12-27T06:43:03.463Z,4.40
2018-12-27T06:45:31.493Z,4.48
2018-12-27T06:47:59.210Z,4.42
2018-12-27T06:50:27.275Z,4.37
2018-12-27T06:52:55.932Z,4.33
2018-12-27T06:55:24.811Z,4.12
2018-12-27T06:57:52.744Z,4.30
2018-12-27T07:00:20.847Z,4.27
2018-12-27T07:02:49.211Z,4.25
2018-12-27T07:05:17.109Z,4.20
2018-12-27T07:07:47.992Z,4.14
2018-12-27T07:10:16.502Z,4.07
2018-12-27T07:12:44.647Z,4.03
2018-12-27T07:15:12.857Z,3.99
2018-12-27T07:17:41.040Z,3.97
2018-12-27T07:20:09.729Z,3.35
2018-12-27T07:22:39.096Z,3.79
2018-12-27T07:25:07.177Z,3.12
2018-12-27T07:27:35.194Z,3.77
2018-12-27T07:30:03.517Z,3.77
2018-12-27T07:32:31.493Z,3.77
2018-12-27T07:34:59.629Z,3.77
2018-12-27T07:37:28.101Z,3.74
2018-12-27T07:39:56.916Z,3.49
2018-12-27T07:42:25.730Z,3.71
2018-12-27T07:44:54.988Z,2.95
2018-12-27T07:47:23.016Z,3.69
2018-12-27T07:49:50.921Z,3.69
2018-12-27T07:52:19.364Z,3.57
2018-12-27T07:54:49.535Z,3.68
2018-12-27T07:57:21.636Z,3.67
2018-12-27T07:59:50.197Z,3.51
2018-12-27T08:02:18.171Z,3.63
2018-12-27T08:04:46.337Z,3.60
2018-12-27T08:07:14.657Z,3.59
2018-12-27T08:09:45.275Z,3.58
2018-12-27T08:12:13.376Z,3.33
2018-12-27T08:14:42.413Z,2.86
2018-12-27T08:17:10.283Z,3.58
2018-12-27T08:19:39.213Z,3.59
2018-12-27T08:22:07.311Z,3.59
2018-12-27T08:24:35.054Z,3.48
2018-12-27T08:27:03.763Z,3.59
2018-12-27T08:29:32.426Z,3.58
2018-12-27T08:32:00.859Z,3.58
2018-12-27T08:34:29.301Z,3.58
2018-12-27T08:36:57.393Z,3.60
2018-12-27T08:39:25.356Z,3.62
2018-12-27T08:41:53.230Z,3.62
2018-12-27T08:44:20.958Z,3.63
2018-12-27T08:46:48.775Z,3.42
2018-12-27T08:49:16.858Z,3.65
2018-12-27T08:51:47.667Z,3.68
2018-12-27T08:54:15.711Z,3.71
2018-12-27T08:56:46.005Z,3.75
2018-12-27T08:59:14.499Z,3.75
2018-12-27T09:01:42.238Z,3.81
2018-12-27T09:04:10.971Z,3.85
2018-12-27T09:06:41.440Z,3.89
2018-12-27T09:09:09.418Z,3.91
2018-12-27T09:11:38.408Z,3.93
2018-12-27T09:14:06.138Z,3.96
2018-12-27T09:16:34.291Z,3.97
2018-12-27T09:19:03.168Z,3.99
2018-12-27T09:21:31.594Z,4.02
2018-12-27T09:23:59.432Z,4.04
2018-12-27T09:26:28.025Z,4.06
2018-12-27T09:28:56.447Z,4.09
2018-12-27T09:31:24.605Z,4.11
2018-12-27T09:33:55.765Z,4.11
2018-12-27T09:36:23.456Z,4.16
2018-12-27T09:38:51.631Z,4.19
2018-12-27T09:41:19.731Z,2.79
2018-12-27T09:43:47.563Z,4.24
2018-12-27T09:46:16.637Z,4.16
2018-12-27T09:48:46.190Z,4.08
2018-12-27T09:51:15.488Z,4.23
2018-12-27T09:53:46.244Z,4.38
2018-12-27T09:56:14.647Z,4.44
2018-12-27T09:58:42.789Z,4.54
2018-12-27T10:01:12.724Z,4.65
2018-12-27T10:03:43.403Z,4.77
2018-12-27T10:06:12.895Z,4.88
2018-12-27T10:08:42.846Z,3.52
2018-12-27T10:11:11.124Z,5.06
2018-12-27T10:13:42.200Z,5.15
2018-12-27T10:16:10.601Z,4.10
2018-12-27T10:18:39.848Z,5.30
2018-12-27T10:21:08.647Z,5.36
2018-12-27T10:23:36.520Z,5.20
2018-12-27T10:26:05.148Z,4.34
2018-12-27T10:28:33.570Z,5.57
2018-12-27T10:31:01.353Z,5.67
2018-12-27T10:33:29.472Z,4.72
2018-12-27T10:35:57.341Z,5.85
2018-12-27T10:38:26.560Z,5.99
2018-12-27T10:40:55.739Z,6.08
2018-12-27T10:43:23.658Z,6.18
2018-12-27T10:45:52.509Z,6.29
2018-12-27T10:48:20.695Z,6.37
2018-12-27T10:50:48.732Z,6.29
2018-12-27T10:53:16.907Z,6.47
2018-12-27T10:55:45.348Z,6.55
2018-12-27T10:58:13.510Z,5.39
2018-12-27T11:00:41.220Z,6.70
2018-12-27T11:03:09.606Z,6.73
2018-12-27T11:05:37.368Z,6.77
2018-12-27T11:08:05.580Z,6.82
2018-12-27T11:10:33.850Z,6.91
2018-12-27T11:13:01.828Z,6.75
2018-12-27T11:15:29.605Z,6.86
2018-12-27T11:17:57.635Z,7.14
2018-12-27T11:20:25.380Z,7.19
2018-12-27T11:22:53.181Z,7.27
2018-12-27T11:25:21.947Z,7.36
2018-12-27T11:27:49.672Z,7.47
2018-12-27T11:30:17.843Z,7.04
2018-12-27T11:32:45.565Z,7.68
2018-12-27T11:35:13.629Z,7.77
2018-12-27T11:37:41.701Z,7.43
2018-12-27T11:40:18.168Z,7.66
2018-12-27T11:42:45.940Z,7.60
2018-12-27T11:45:14.700Z,7.55
2018-12-27T11:47:42.564Z,7.54
2018-12-27T11:50:10.684Z,7.57
2018-12-27T11:52:38.433Z,7.60
2018-12-27T11:55:06.609Z,7.60
2018-12-27T11:57:34.549Z,7.63
2018-12-27T12:00:04.723Z,7.67
2018-12-27T12:02:32.721Z,7.72
2018-12-27T12:05:00.471Z,7.76
2018-12-27T12:07:28.355Z,7.83
2018-12-27T12:09:56.391Z,7.54
2018-12-27T12:12:24.965Z,7.94
2018-12-27T12:14:53.352Z,8.00
2018-12-27T12:17:21.628Z,8.04
2018-12-27T12:19:52.910Z,8.07
2018-12-27T12:22:20.878Z,8.07
2018-12-27T12:24:53.561Z,8.13
2018-12-27T12:27:24.414Z,8.19
2018-12-27T12:29:52.411Z,8.24
2018-12-27T12:32:20.543Z,8.29
2018-12-27T12:34:49.268Z,8.29
2018-12-27T12:37:19.621Z,8.33
2018-12-27T12:39:48.408Z,8.36
2018-12-27T12:42:33.038Z,8.39
2018-12-27T12:44:56.981Z,8.40
2018-12-27T12:47:25.574Z,8.17
2018-12-27T12:49:54.520Z,8.22
2018-12-27T12:52:24.859Z,8.28
2018-12-27T12:54:53.455Z,8.24
2018-12-27T12:57:23.575Z,7.55
2018-12-27T12:59:52.247Z,8.18
2018-12-27T13:02:21.529Z,8.15
2018-12-27T13:04:50.085Z,7.08
2018-12-27T13:07:18.476Z,8.11
2018-12-27T13:09:46.268Z,7.97
2018-12-27T13:12:14.305Z,8.08
2018-12-27T13:14:42.375Z,8.06
2018-12-27T13:17:10.550Z,7.73
2018-12-27T13:19:43.496Z,8.05
2018-12-27T13:22:12.254Z,8.05
2018-12-27T13:24:40.747Z,8.05
2018-12-27T13:27:09.218Z,8.03
2018-12-27T13:29:38.962Z,8.03
2018-12-27T13:32:09.927Z,7.88
2018-12-27T13:34:38.250Z,7.76
2018-12-27T13:37:07.625Z,7.89
2018-12-27T13:39:37.346Z,7.98
2018-12-27T13:42:06.927Z,7.99
2018-12-27T13:44:35.098Z,7.96
2018-12-27T13:47:03.424Z,7.95
2018-12-27T13:49:32.094Z,7.96
2018-12-27T13:52:04.075Z,7.96
2018-12-27T13:54:32.950Z,7.38
2018-12-27T13:57:01.358Z,7.91
2018-12-27T13:59:31.622Z,7.90
2018-12-27T14:01:59.412Z,7.79
2018-12-27T14:04:27.592Z,7.90
2018-12-27T14:06:55.828Z,7.89
2018-12-27T14:09:25.017Z,7.87
2018-12-27T14:11:53.864Z,7.74
2018-12-27T14:14:21.636Z,7.85
2018-12-27T14:16:49.465Z,7.82
2018-12-27T14:19:17.663Z,7.80
2018-12-27T14:21:45.487Z,7.78
2018-12-27T14:24:14.181Z,7.74
2018-12-27T14:26:42.264Z,7.59
2018-12-27T14:29:10.011Z,7.67
2018-12-27T14:31:38.361Z,7.64
2018-12-27T14:34:06.427Z,7.50
2018-12-27T14:36:39.655Z,7.57
2018-12-27T14:39:02.421Z,7.55
2018-12-27T14:41:32.089Z,7.53
2018-12-27T14:44:03.697Z,7.52
2018-12-27T14:46:31.580Z,7.49
2018-12-27T14:48:59.925Z,7.47
2018-12-27T14:51:28.470Z,7.45
2018-12-27T14:53:56.257Z,7.43
2018-12-27T14:56:24.809Z,7.39
2018-12-27T14:58:52.707Z,6.99
2018-12-27T15:01:20.485Z,7.12
2018-12-27T15:03:51.244Z,7.31
2018-12-27T15:06:19.787Z,7.28
2018-12-27T15:08:47.594Z,7.25
2018-12-27T15:11:16.619Z,7.21
2018-12-27T15:13:46.513Z,6.97
2018-12-27T15:16:16.040Z,5.66
2018-12-27T15:18:44.263Z,7.12
2018-12-27T15:21:12.009Z,7.09
2018-12-27T15:23:40.683Z,6.41
2018-12-27T15:26:12.001Z,7.03
2018-12-27T15:28:40.090Z,6.89
2018-12-27T15:31:09.980Z,5.93
2018-12-27T15:33:39.900Z,6.95
2018-12-27T15:36:12.044Z,5.96
2018-12-27T15:38:40.502Z,6.57
2018-12-27T15:41:10.437Z,6.87
2018-12-27T15:43:38.601Z,6.81
2018-12-27T15:46:06.704Z,6.78
2018-12-27T15:48:37.372Z,6.55
2018-12-27T15:51:05.709Z,6.74
2018-12-27T15:53:33.702Z,6.73
2018-12-27T15:56:03.008Z,6.72
2018-12-27T15:58:31.514Z,6.72
2018-12-27T16:01:00.884Z,6.50
2018-12-27T16:03:31.466Z,6.74
2018-12-27T16:06:00.251Z,6.73
2018-12-27T16:08:28.839Z,6.71
2018-12-27T16:10:57.490Z,6.69
2018-12-27T16:13:25.392Z,6.66
2018-12-27T16:15:53.150Z,6.62
2018-12-27T16:18:21.302Z,6.59
2018-12-27T16:20:49.276Z,6.54
2018-12-27T16:23:20.386Z,6.49
2018-12-27T16:25:48.829Z,6.44
2018-12-27T16:28:21.621Z,6.39
2018-12-27T16:30:51.620Z,6.33
2018-12-27T16:33:19.466Z,6.16
2018-12-27T16:35:47.733Z,6.26
2018-12-27T16:38:17.923Z,6.23
2018-12-27T16:40:46.019Z,6.20
2018-12-27T16:43:17.040Z,6.19
2018-12-27T16:45:45.347Z,6.16
2018-12-27T16:48:13.528Z,6.14
2018-12-27T16:50:41.575Z,6.11
2018-12-27T16:53:10.500Z,6.09
2018-12-27T16:55:43.689Z,6.06
2018-12-27T16:58:15.816Z,6.04
2018-12-27T17:00:44.711Z,6.01
2018-12-27T17:03:12.646Z,5.99
2018-12-27T17:05:40.837Z,5.98
2018-12-27T17:08:11.059Z,5.96
2018-12-27T17:10:39.554Z,5.96
2018-12-27T17:13:07.663Z,5.27
2018-12-27T17:15:36.108Z,5.92
2018-12-27T17:18:11.506Z,5.78
2018-12-27T17:20:41.858Z,5.88
2018-12-27T17:23:10.163Z,5.90
2018-12-27T17:25:38.091Z,5.58
2018-12-27T17:28:06.271Z,5.89
2018-12-27T17:30:35.104Z,5.89
2018-12-27T17:33:04.197Z,5.88
2018-12-27T17:35:32.221Z,5.87
2018-12-27T17:38:00.476Z,5.88
2018-12-27T17:40:29.334Z,5.87
2018-12-27T17:42:57.093Z,5.86
2018-12-27T17:45:26.516Z,5.82
2018-12-27T17:47:54.115Z,5.77
2018-12-27T17:50:22.013Z,5.75
2018-12-27T17:52:51.206Z,4.52
2018-12-27T17:55:19.628Z,5.74
2018-12-27T17:57:47.484Z,5.63
2018-12-27T18:00:16.041Z,5.04
2018-12-27T18:02:45.654Z,5.71
2018-12-27T18:05:13.571Z,5.47
2018-12-27T18:07:42.664Z,5.01
2018-12-27T18:10:14.698Z,5.68
2018-12-27T18:12:51.030Z,5.69
2018-12-27T18:15:19.443Z,5.68
2018-12-27T18:17:53.100Z,5.68
2018-12-27T18:20:24.728Z,5.11
2018-12-27T18:22:56.377Z,5.68
2018-12-27T18:25:24.689Z,5.70
2018-12-27T18:27:52.709Z,5.71
2018-12-27T18:30:21.683Z,5.72
2018-12-27T18:32:50.893Z,5.73
2018-12-27T18:35:18.769Z,5.75
2018-12-27T18:37:48.302Z,5.73
2018-12-27T18:40:19.723Z,5.73
2018-12-27T18:42:47.748Z,5.73
2018-12-27T18:45:22.219Z,5.72
2018-12-27T18:47:51.921Z,5.70
2018-12-27T18:50:23.925Z,5.70
2018-12-27T18:52:56.615Z,5.70
2018-12-27T18:58:22.263Z,5.63
2018-12-27T19:01:03.396Z,5.59
2018-12-27T19:03:33.590Z,5.58
2018-12-27T19:06:04.206Z,5.56
2018-12-27T19:08:33.649Z,5.54
2018-12-27T19:11:15.821Z,3.95
2018-12-27T19:13:50.616Z,5.47
2018-12-27T19:16:25.732Z,5.45
2018-12-27T19:18:59.148Z,5.43
2018-12-27T19:23:44.203Z,5.07
2018-12-27T19:26:13.142Z,5.23
2018-12-27T19:28:42.684Z,5.34
2018-12-27T19:31:15.425Z,5.32
2018-12-27T19:33:45.132Z,5.29
2018-12-27T19:36:19.259Z,4.26
2018-12-27T19:38:52.013Z,5.25
2018-12-27T19:41:20.914Z,5.24
2018-12-27T19:43:50.494Z,5.22
2018-12-27T19:46:23.459Z,5.20
2018-12-27T19:48:52.640Z,4.96
2018-12-27T19:51:24.298Z,4.30
2018-12-27T19:53:55.013Z,5.16
2018-12-27T19:56:25.038Z,5.14
2018-12-27T19:58:58.509Z,3.47
2018-12-27T20:01:26.474Z,5.12
2018-12-27T20:03:56.065Z,4.87
2018-12-27T20:06:24.028Z,5.07
2018-12-27T20:08:55.319Z,5.06
2018-12-27T20:11:25.206Z,5.07
2018-12-27T20:13:56.960Z,5.04
2018-12-27T20:16:25.822Z,5.05
2018-12-27T20:18:54.321Z,5.04
2018-12-27T20:21:23.678Z,5.04
2018-12-27T20:23:55.344Z,5.05
2018-12-27T20:26:23.925Z,5.05
2018-12-27T20:28:52.271Z,5.05
2018-12-27T20:31:26.314Z,3.73
2018-12-27T20:34:07.798Z,5.03
2018-12-27T20:36:36.907Z,5.00
2018-12-27T20:39:10.769Z,3.94
2018-12-27T20:41:43.045Z,4.87
2018-12-27T20:44:10.961Z,4.95
2018-12-27T20:49:24.137Z,4.78
2018-12-27T20:51:52.352Z,4.90
2018-12-27T20:54:23.509Z,4.90
2018-12-27T20:56:58.087Z,4.91
2018-12-27T20:59:27.065Z,4.91
2018-12-27T21:01:55.480Z,4.82
2018-12-27T21:04:30.068Z,4.91
2018-12-27T21:07:00.829Z,4.92
2018-12-27T21:09:37.730Z,4.90
2018-12-27T21:12:10.267Z,4.90
2018-12-27T21:14:38.983Z,4.89
2018-12-27T21:17:12.440Z,4.78
2018-12-27T21:19:45.101Z,4.87
2018-12-27T21:22:15.433Z,4.84
2018-12-27T21:24:44.878Z,4.83
2018-12-27T21:27:17.205Z,4.83
2018-12-27T21:29:47.739Z,4.83
2018-12-27T21:32:16.060Z,4.83
2018-12-27T21:34:47.773Z,4.83
2018-12-27T21:37:17.165Z,4.81
2018-12-27T21:39:48.117Z,4.82
2018-12-27T21:42:17.312Z,4.83
2018-12-27T21:44:46.061Z,4.27
2018-12-27T21:47:16.823Z,4.84
2018-12-27T21:49:46.270Z,4.83
2018-12-27T21:52:15.458Z,4.82
2018-12-27T21:54:46.193Z,4.84
2018-12-27T21:57:16.040Z,4.84
2018-12-27T21:59:43.962Z,4.83
2018-12-27T22:02:18.383Z,4.82
2018-12-27T22:04:47.389Z,4.81
2018-12-27T22:07:16.959Z,4.78
2018-12-27T22:09:48.068Z,4.75
2018-12-27T22:12:16.549Z,4.71
2018-12-27T22:14:45.686Z,4.68
2018-12-27T22:17:14.098Z,4.66
2018-12-27T22:19:43.258Z,4.65
2018-12-27T22:22:11.684Z,4.60
2018-12-27T22:24:40.699Z,4.48
2018-12-27T22:27:15.577Z,4.49
2018-12-27T22:29:50.123Z,4.61
2018-12-27T22:32:21.840Z,4.59
2018-12-27T22:34:50.461Z,4.58
2018-12-27T22:37:18.754Z,4.59
2018-12-27T22:39:46.772Z,4.59
2018-12-27T22:42:20.814Z,4.55
2018-12-27T22:44:52.261Z,4.57
2018-12-27T22:47:23.923Z,4.54
2018-12-27T22:49:54.272Z,4.51
2018-12-27T22:52:23.811Z,4.52
2018-12-27T22:54:54.100Z,4.50
2018-12-27T22:58:47.183Z,4.49
2018-12-27T23:01:19.635Z,4.47
2018-12-27T23:03:49.253Z,4.44
2018-12-27T23:06:18.183Z,4.43
2018-12-27T23:08:46.837Z,4.41
2018-12-27T23:11:19.381Z,4.40
2018-12-27T23:13:47.195Z,4.37
2018-12-27T23:16:17.718Z,4.14
2018-12-27T23:18:48.230Z,3.89
2018-12-27T23:21:17.634Z,4.36
2018-12-27T23:23:53.026Z,3.57
2018-12-27T23:26:22.609Z,4.38
2018-12-27T23:28:51.046Z,4.39
2018-12-27T23:31:21.031Z,4.37
2018-12-27T23:33:49.544Z,4.36
2018-12-27T23:36:18.077Z,4.36
2018-12-27T23:38:50.258Z,4.33
2018-12-27T23:41:15.590Z,4.30
2018-12-27T23:43:43.684Z,4.29
2018-12-27T23:46:15.322Z,4.29
2018-12-27T23:48:43.361Z,3.92
2018-12-27T23:51:13.339Z,4.27
2018-12-27T23:53:41.323Z,4.27
2018-12-27T23:56:10.691Z,4.27
2018-12-27T23:58:42.235Z,3.81
